createdAt,value
2017-10-20T00:01:45.068Z,14.67
2017-10-20T00:04:12.770Z,11.50
2017-10-20T00:06:41.200Z,11.47
2017-10-20T00:09:08.912Z,14.67
2017-10-20T00:11:37.334Z,14.97
2017-10-20T00:14:05.035Z,17.70
2017-10-20T00:16:32.695Z,12.27
2017-10-20T00:19:00.403Z,16.10
2017-10-20T00:21:28.065Z,18.23
2017-10-20T00:23:55.774Z,13.50
2017-10-20T00:26:23.437Z,21.47
2017-10-20T00:28:51.134Z,14.10
2017-10-20T00:31:18.800Z,13.83
2017-10-20T00:33:46.528Z,12.70
2017-10-20T00:36:14.192Z,16.87
2017-10-20T00:38:42.688Z,16.13
2017-10-20T00:41:10.399Z,14.37
2017-10-20T00:43:38.102Z,14.40
2017-10-20T00:46:06.531Z,14.50
2017-10-20T00:48:34.271Z,12.03
2017-10-20T00:51:01.939Z,16.47
2017-10-20T00:53:29.663Z,12.90
2017-10-20T00:55:58.143Z,15.23
2017-10-20T00:58:26.670Z,14.37
2017-10-20T01:00:54.346Z,13.67
2017-10-20T01:03:22.063Z,12.33
2017-10-20T01:05:49.722Z,15.63
2017-10-20T01:08:17.431Z,12.30
2017-10-20T01:10:45.112Z,12.87
2017-10-20T01:13:13.583Z,19.03
2017-10-20T01:15:42.043Z,13.07
2017-10-20T01:18:09.783Z,12.70
2017-10-20T01:20:37.455Z,15.17
2017-10-20T01:23:05.237Z,13.63
2017-10-20T01:25:32.964Z,20.60
2017-10-20T01:28:00.689Z,22.00
2017-10-20T01:30:28.411Z,13.23
2017-10-20T01:32:56.163Z,11.83
2017-10-20T01:35:23.896Z,13.67
2017-10-20T01:37:51.649Z,13.03
2017-10-20T01:40:19.372Z,14.20
2017-10-20T01:42:47.906Z,13.70
2017-10-20T01:45:15.638Z,13.40
2017-10-20T01:47:43.408Z,18.87
2017-10-20T01:50:11.131Z,15.00
2017-10-20T01:52:38.888Z,16.10
2017-10-20T01:55:06.607Z,17.57
2017-10-20T01:57:34.412Z,15.73
2017-10-20T02:00:02.144Z,16.10
2017-10-20T02:02:29.819Z,17.20
2017-10-20T02:04:57.540Z,19.20
2017-10-20T02:07:25.211Z,15.63
2017-10-20T02:09:52.958Z,20.47
2017-10-20T02:12:20.659Z,13.60
2017-10-20T02:14:48.388Z,17.93
2017-10-20T02:17:16.065Z,20.03
2017-10-20T02:19:43.800Z,18.50
2017-10-20T02:22:11.480Z,15.70
2017-10-20T02:24:39.231Z,17.33
2017-10-20T02:27:06.916Z,16.77
2017-10-20T02:29:34.660Z,15.90
2017-10-20T02:32:02.351Z,17.73
2017-10-20T02:34:30.109Z,19.40
2017-10-20T02:36:57.799Z,17.50
2017-10-20T02:39:25.567Z,16.60
2017-10-20T02:41:53.267Z,18.93
2017-10-20T02:44:20.998Z,16.33
2017-10-20T02:46:48.676Z,17.17
2017-10-20T02:49:16.407Z,17.80
2017-10-20T02:51:44.147Z,15.87
2017-10-20T02:54:12.657Z,15.37
2017-10-20T02:56:40.319Z,13.87
2017-10-20T02:59:10.046Z,14.17
2017-10-20T03:01:37.783Z,16.07
2017-10-20T03:04:05.540Z,12.83
2017-10-20T03:06:33.219Z,21.07
2017-10-20T03:09:00.936Z,22.97
2017-10-20T03:11:29.415Z,16.73
2017-10-20T03:13:57.891Z,14.90
2017-10-20T03:16:25.552Z,16.50
2017-10-20T03:18:54.035Z,16.43
2017-10-20T03:21:22.468Z,14.63
2017-10-20T03:23:50.181Z,14.47
2017-10-20T03:26:18.716Z,14.80
2017-10-20T03:28:46.432Z,12.40
2017-10-20T03:31:14.109Z,15.30
2017-10-20T03:33:41.823Z,17.43
2017-10-20T03:36:09.496Z,33.27
2017-10-20T03:38:37.977Z,13.20
2017-10-20T03:41:06.419Z,15.00
2017-10-20T03:43:34.127Z,14.30
2017-10-20T03:46:01.791Z,16.17
2017-10-20T03:48:29.503Z,16.10
2017-10-20T03:50:57.180Z,16.40
2017-10-20T03:53:24.927Z,27.70
2017-10-20T03:55:52.591Z,20.37
2017-10-20T03:58:20.351Z,17.07
2017-10-20T04:00:48.019Z,16.97
2017-10-20T04:03:15.756Z,17.10
2017-10-20T04:05:43.447Z,17.60
2017-10-20T04:08:11.948Z,14.93
2017-10-20T04:10:39.696Z,14.70
2017-10-20T04:13:08.217Z,16.87
2017-10-20T04:15:35.927Z,13.80
2017-10-20T04:18:04.408Z,18.93
2017-10-20T04:20:32.892Z,15.53
2017-10-20T04:23:01.325Z,22.00
2017-10-20T04:25:29.032Z,13.70
2017-10-20T04:27:57.463Z,16.10
2017-10-20T04:30:25.175Z,13.37
2017-10-20T04:32:53.608Z,13.80
2017-10-20T04:35:21.319Z,14.50
2017-10-20T04:37:48.996Z,13.43
2017-10-20T04:40:16.731Z,18.57
2017-10-20T04:42:45.163Z,17.63
2017-10-20T04:45:12.871Z,14.07
2017-10-20T04:47:40.548Z,18.50
2017-10-20T04:50:08.272Z,16.97
2017-10-20T04:52:36.707Z,16.43
2017-10-20T04:55:04.415Z,17.83
2017-10-20T04:57:32.960Z,20.23
2017-10-20T05:00:00.696Z,14.63
2017-10-20T05:02:28.364Z,14.40
2017-10-20T05:04:56.070Z,13.57
2017-10-20T05:07:23.734Z,15.43
2017-10-20T05:09:52.225Z,15.10
2017-10-20T05:12:20.659Z,17.63
2017-10-20T05:14:48.366Z,15.10
2017-10-20T05:17:16.791Z,15.60
2017-10-20T05:19:44.500Z,14.80
2017-10-20T05:22:12.932Z,17.63
2017-10-20T05:24:41.543Z,14.77
2017-10-20T05:27:09.983Z,14.50
2017-10-20T05:29:37.694Z,15.90
2017-10-20T05:32:06.125Z,16.77
2017-10-20T05:34:33.852Z,20.87
2017-10-20T05:37:01.549Z,18.73
2017-10-20T05:39:29.251Z,19.80
2017-10-20T05:41:57.684Z,13.03
2017-10-20T05:44:25.411Z,15.43
2017-10-20T05:46:53.088Z,15.00
2017-10-20T05:49:20.800Z,17.47
2017-10-20T05:51:49.241Z,20.00
2017-10-20T05:54:16.968Z,13.53
2017-10-20T05:56:44.632Z,13.87
2017-10-20T05:59:12.357Z,16.53
2017-10-20T06:01:40.792Z,15.30
2017-10-20T06:04:08.514Z,28.03
2017-10-20T06:06:36.192Z,21.17
2017-10-20T06:09:03.996Z,34.00
2017-10-20T06:11:31.667Z,16.33
2017-10-20T06:13:59.380Z,16.70
2017-10-20T06:16:27.052Z,16.20
2017-10-20T06:18:54.769Z,12.70
2017-10-20T06:21:23.199Z,17.77
2017-10-20T06:23:50.903Z,15.07
2017-10-20T06:26:19.379Z,16.07
2017-10-20T06:28:47.819Z,12.93
2017-10-20T06:31:15.527Z,13.97
2017-10-20T06:33:43.986Z,14.77
2017-10-20T06:36:12.471Z,18.37
2017-10-20T06:38:40.908Z,64.97
2017-10-20T06:41:08.775Z,15.33
2017-10-20T06:43:36.459Z,17.80
2017-10-20T06:46:04.189Z,16.80
2017-10-20T06:48:31.880Z,18.30
2017-10-20T06:50:59.636Z,15.10
2017-10-20T06:53:27.336Z,15.93
2017-10-20T06:55:55.071Z,14.97
2017-10-20T06:58:23.547Z,18.73
2017-10-20T07:00:51.274Z,16.70
2017-10-20T07:03:18.983Z,12.03
2017-10-20T07:05:47.500Z,12.90
2017-10-20T07:08:15.196Z,20.07
2017-10-20T07:10:42.936Z,16.63
2017-10-20T07:13:10.659Z,20.03
2017-10-20T07:15:38.499Z,16.47
2017-10-20T07:18:09.908Z,17.80
2017-10-20T07:20:53.393Z,17.17
2017-10-20T07:23:21.108Z,22.03
2017-10-20T07:25:48.844Z,17.37
2017-10-20T07:28:16.548Z,22.70
2017-10-20T07:30:44.320Z,21.20
2017-10-20T07:33:12.895Z,15.20
2017-10-20T07:35:41.434Z,24.50
2017-10-20T07:38:09.153Z,16.10
2017-10-20T07:40:36.910Z,18.83
2017-10-20T07:43:05.377Z,15.90
2017-10-20T07:45:33.872Z,16.17
2017-10-20T07:48:01.618Z,17.80
2017-10-20T07:50:30.128Z,21.77
2017-10-20T07:52:57.798Z,17.27
2017-10-20T07:55:25.588Z,21.83
2017-10-20T07:57:53.259Z,19.80
2017-10-20T08:00:21.004Z,18.70
2017-10-20T08:02:48.680Z,20.30
2017-10-20T08:05:16.413Z,19.67
2017-10-20T08:07:44.088Z,16.10
2017-10-20T08:10:11.799Z,20.30
2017-10-20T08:12:39.471Z,23.70
2017-10-20T08:15:07.187Z,18.47
2017-10-20T08:17:34.862Z,15.63
2017-10-20T08:20:03.352Z,14.07
2017-10-20T08:22:31.787Z,13.93
2017-10-20T08:24:59.499Z,17.43
2017-10-20T08:27:27.172Z,16.00
2017-10-20T08:29:54.887Z,15.77
2017-10-20T08:32:24.772Z,17.90
2017-10-20T08:34:53.916Z,15.00
2017-10-20T08:37:22.349Z,16.40
2017-10-20T08:39:51.694Z,21.90
2017-10-20T08:42:20.153Z,21.43
2017-10-20T08:44:48.796Z,23.83
2017-10-20T08:47:18.015Z,14.63
2017-10-20T08:49:46.607Z,19.73
2017-10-20T08:52:15.022Z,17.70
2017-10-20T08:54:43.633Z,19.30
2017-10-20T08:57:12.036Z,14.83
2017-10-20T08:59:41.452Z,17.60
2017-10-20T09:02:09.940Z,21.03
2017-10-20T09:04:37.711Z,17.57
2017-10-20T09:07:05.388Z,15.47
2017-10-20T09:09:33.063Z,18.43
2017-10-20T09:12:00.823Z,22.67
2017-10-20T09:14:28.504Z,19.20
2017-10-20T09:16:56.215Z,18.67
2017-10-20T09:19:23.894Z,20.10
2017-10-20T09:21:51.612Z,15.33
2017-10-20T09:24:20.094Z,16.77
2017-10-20T09:26:48.572Z,18.23
2017-10-20T09:29:17.111Z,19.70
2017-10-20T09:31:44.823Z,21.27
2017-10-20T09:34:13.314Z,17.50
2017-10-20T09:36:41.026Z,24.77
2017-10-20T09:39:08.707Z,21.60
2017-10-20T09:41:37.187Z,19.20
2017-10-20T09:44:05.676Z,19.80
2017-10-20T09:46:34.193Z,24.43
2017-10-20T09:49:01.904Z,21.47
2017-10-20T09:51:31.623Z,16.40
2017-10-20T09:54:00.021Z,18.70
2017-10-20T09:56:29.699Z,18.93
2017-10-20T09:58:59.619Z,26.80
2017-10-20T10:01:29.864Z,20.73
2017-10-20T10:03:59.395Z,23.77
2017-10-20T10:06:33.151Z,22.60
2017-10-20T10:09:03.480Z,17.80
2017-10-20T10:11:33.069Z,20.30
2017-10-20T10:14:02.953Z,17.37
2017-10-20T10:16:33.543Z,16.60
2017-10-20T10:19:01.480Z,21.73
2017-10-20T10:21:30.140Z,16.90
2017-10-20T10:23:57.811Z,18.10
2017-10-20T10:26:27.698Z,19.17
2017-10-20T10:28:55.378Z,17.50
2017-10-20T10:31:23.872Z,16.30
2017-10-20T10:33:51.553Z,13.63
2017-10-20T10:36:19.264Z,14.60
2017-10-20T10:38:46.939Z,17.93
2017-10-20T10:41:15.456Z,17.13
2017-10-20T10:43:43.123Z,13.63
2017-10-20T10:46:10.879Z,12.47
2017-10-20T10:48:38.587Z,12.63
2017-10-20T10:51:06.303Z,13.87
2017-10-20T10:53:33.972Z,10.53
2017-10-20T10:56:01.688Z,11.23
2017-10-20T10:58:30.147Z,13.73
2017-10-20T11:00:57.895Z,17.97
2017-10-20T11:03:25.559Z,13.67
2017-10-20T11:06:05.215Z,15.27
2017-10-20T11:08:45.697Z,13.70
2017-10-20T11:11:25.484Z,10.03
2017-10-20T11:13:53.212Z,13.57
2017-10-20T11:16:20.935Z,16.17
2017-10-20T11:18:48.596Z,11.17
2017-10-20T11:21:17.076Z,9.30
2017-10-20T11:23:45.531Z,12.60
2017-10-20T11:26:13.268Z,10.20
2017-10-20T11:28:40.959Z,8.50
2017-10-20T11:31:10.575Z,9.43
2017-10-20T11:33:38.939Z,6.43
2017-10-20T11:36:07.478Z,13.43
2017-10-20T11:38:35.894Z,10.20
2017-10-20T11:41:04.370Z,6.30
2017-10-20T11:43:32.720Z,8.63
2017-10-20T11:46:01.279Z,8.80
2017-10-20T11:48:28.961Z,8.90
2017-10-20T11:50:56.679Z,8.77
2017-10-20T11:53:25.123Z,6.50
2017-10-20T11:55:52.848Z,8.70
2017-10-20T11:58:20.515Z,13.23
2017-10-20T12:00:48.226Z,11.17
2017-10-20T12:03:16.722Z,12.50
2017-10-20T12:05:45.220Z,10.00
2017-10-20T12:08:12.911Z,11.80
2017-10-20T12:10:40.588Z,5.80
2017-10-20T12:13:08.335Z,4.90
2017-10-20T12:15:36.065Z,2.70
2017-10-20T12:18:03.792Z,3.10
2017-10-20T12:20:32.225Z,3.27
2017-10-20T12:22:59.935Z,11.50
2017-10-20T12:25:28.389Z,14.77
2017-10-20T12:27:56.104Z,1.90
2017-10-20T12:30:23.772Z,14.07
2017-10-20T12:32:51.483Z,2.90
2017-10-20T12:35:19.920Z,3.67
2017-10-20T12:37:47.619Z,3.10
2017-10-20T12:40:16.053Z,3.20
2017-10-20T12:42:43.755Z,1.90
2017-10-20T12:45:12.184Z,1.20
2017-10-20T12:47:39.885Z,1.10
2017-10-20T12:50:07.564Z,1.40
2017-10-20T12:52:36.043Z,1.17
2017-10-20T12:55:04.476Z,2.40
2017-10-20T12:57:32.207Z,2.07
2017-10-20T12:59:59.883Z,1.83
2017-10-20T13:02:27.587Z,2.40
2017-10-20T13:04:55.291Z,3.10
2017-10-20T13:07:22.995Z,6.30
2017-10-20T13:09:50.656Z,30.97
2017-10-20T13:12:18.364Z,2.70
2017-10-20T13:14:46.028Z,2.30
2017-10-20T13:17:13.740Z,3.00
2017-10-20T13:19:41.409Z,1.83
2017-10-20T13:22:09.904Z,2.70
2017-10-20T13:24:38.331Z,4.70
2017-10-20T13:27:06.041Z,1.57
2017-10-20T13:29:33.856Z,2.53
2017-10-20T13:32:01.556Z,2.63
2017-10-20T13:34:29.986Z,4.07
2017-10-20T13:36:57.704Z,2.07
2017-10-20T13:39:26.212Z,22.73
2017-10-20T13:41:53.934Z,3.60
2017-10-20T13:44:22.388Z,3.63
2017-10-20T13:46:50.091Z,3.13
2017-10-20T13:49:17.747Z,2.70
2017-10-20T13:51:45.464Z,1.93
2017-10-20T13:54:13.129Z,6.70
2017-10-20T13:56:40.839Z,2.20
2017-10-20T13:59:08.504Z,1.50
2017-10-20T14:01:36.209Z,3.40
2017-10-20T14:04:03.916Z,3.00
2017-10-20T14:06:31.661Z,4.07
2017-10-20T14:09:00.086Z,2.03
2017-10-20T14:11:27.796Z,29.13
2017-10-20T14:13:56.226Z,4.43
2017-10-20T14:16:23.928Z,3.30
2017-10-20T14:18:52.355Z,2.50
2017-10-20T14:21:20.055Z,2.90
2017-10-20T14:23:47.715Z,1.70
2017-10-20T14:26:16.207Z,2.93
2017-10-20T14:28:44.643Z,4.20
2017-10-20T14:31:12.348Z,1.40
2017-10-20T14:33:40.816Z,1.90
2017-10-20T14:36:09.255Z,3.40
2017-10-20T14:38:36.955Z,6.40
2017-10-20T14:41:05.380Z,2.70
2017-10-20T14:43:33.084Z,3.63
2017-10-20T14:46:01.516Z,3.27
2017-10-20T14:48:29.216Z,4.73
2017-10-20T14:50:56.884Z,3.50
2017-10-20T14:53:25.367Z,4.67
2017-10-20T14:55:53.802Z,1.53
2017-10-20T14:58:21.508Z,8.73
2017-10-20T15:00:49.939Z,6.00
2017-10-20T15:03:17.640Z,5.10
2017-10-20T15:05:46.077Z,5.50
2017-10-20T15:08:13.785Z,9.27
2017-10-20T15:10:42.211Z,2.93
2017-10-20T15:13:09.910Z,3.53
2017-10-20T15:15:37.573Z,3.10
2017-10-20T15:18:06.042Z,2.37
2017-10-20T15:20:34.482Z,9.20
2017-10-20T15:23:02.189Z,5.43
2017-10-20T15:25:30.625Z,12.73
2017-10-20T15:27:58.330Z,4.50
2017-10-20T15:30:26.755Z,1.63
2017-10-20T15:32:54.460Z,3.80
2017-10-20T15:35:22.131Z,3.10
2017-10-20T15:37:50.610Z,2.00
2017-10-20T15:40:19.042Z,4.83
2017-10-20T15:42:46.744Z,3.27
2017-10-20T15:45:15.178Z,2.90
2017-10-20T15:47:42.891Z,2.83
2017-10-20T15:50:11.320Z,3.97
2017-10-20T15:52:39.020Z,7.57
2017-10-20T15:55:07.454Z,3.03
2017-10-20T15:57:35.168Z,4.43
2017-10-20T16:00:03.618Z,2.70
2017-10-20T16:02:31.336Z,5.00
2017-10-20T16:04:58.994Z,3.57
2017-10-20T16:07:26.701Z,3.53
2017-10-20T16:09:54.361Z,1.93
2017-10-20T16:12:22.076Z,3.10
2017-10-20T16:14:49.735Z,6.77
2017-10-20T16:17:17.434Z,7.33
2017-10-20T16:19:45.096Z,3.87
2017-10-20T16:22:12.805Z,4.83
2017-10-20T16:24:40.496Z,4.00
2017-10-20T16:27:08.200Z,2.93
2017-10-20T16:29:36.635Z,2.83
2017-10-20T16:32:04.344Z,3.27
2017-10-20T16:34:32.772Z,3.27
2017-10-20T16:37:00.471Z,2.00
2017-10-20T16:39:28.935Z,1.73
2017-10-20T16:41:56.679Z,4.60
2017-10-20T16:44:24.383Z,3.17
2017-10-20T16:46:52.193Z,3.33
2017-10-20T16:49:19.851Z,2.30
2017-10-20T16:51:47.543Z,4.07
2017-10-20T16:54:16.032Z,4.83
2017-10-20T16:56:44.459Z,4.60
2017-10-20T16:59:12.163Z,4.53
2017-10-20T17:01:40.590Z,2.97
2017-10-20T17:04:08.300Z,6.97
2017-10-20T17:06:36.734Z,2.70
2017-10-20T17:09:04.568Z,6.27
2017-10-20T17:11:32.240Z,13.15
2017-10-20T17:13:59.955Z,4.30
2017-10-20T17:16:27.627Z,4.00
2017-10-20T17:18:56.096Z,5.40
2017-10-20T17:21:24.899Z,44.60
2017-10-20T17:23:53.420Z,16.80
2017-10-20T17:26:21.088Z,14.83
2017-10-20T17:28:48.800Z,10.00
2017-10-20T17:31:16.465Z,8.10
2017-10-20T17:33:44.163Z,4.80
2017-10-20T17:36:11.836Z,4.63
2017-10-20T17:38:39.541Z,4.73
2017-10-20T17:41:07.230Z,5.20
2017-10-20T17:43:34.943Z,5.13
2017-10-20T17:46:03.403Z,4.07
2017-10-20T17:48:31.108Z,7.53
2017-10-20T17:50:58.807Z,5.83
2017-10-20T17:53:26.511Z,3.20
2017-10-20T17:55:54.951Z,3.90
2017-10-20T17:58:22.670Z,8.57
2017-10-20T18:00:50.336Z,3.73
2017-10-20T18:03:18.044Z,3.50
2017-10-20T18:05:45.707Z,7.33
2017-10-20T18:08:13.420Z,4.67
2017-10-20T18:10:41.092Z,3.70
2017-10-20T18:13:08.817Z,3.07
2017-10-20T18:15:37.268Z,3.10
2017-10-20T18:18:05.161Z,3.20
2017-10-20T18:20:32.824Z,6.17
2017-10-20T18:23:00.539Z,4.60
2017-10-20T18:25:28.213Z,6.53
2017-10-20T18:27:55.929Z,10.23
2017-10-20T18:30:23.592Z,4.00
2017-10-20T18:32:51.299Z,9.80
2017-10-20T18:35:18.972Z,4.73
2017-10-20T18:37:47.471Z,7.30
2017-10-20T18:40:15.152Z,6.70
2017-10-20T18:42:42.866Z,13.33
2017-10-20T18:45:11.325Z,8.40
2017-10-20T18:47:39.055Z,5.43
2017-10-20T18:50:06.724Z,7.97
2017-10-20T18:52:34.454Z,7.17
2017-10-20T18:55:02.124Z,7.10
2017-10-20T18:57:29.835Z,6.67
2017-10-20T18:59:57.542Z,8.73
2017-10-20T19:02:25.232Z,7.13
2017-10-20T19:04:52.957Z,7.10
2017-10-20T19:07:20.642Z,4.77
2017-10-20T19:09:48.380Z,5.00
2017-10-20T19:12:16.062Z,9.10
2017-10-20T19:14:43.768Z,6.23
2017-10-20T19:17:12.199Z,5.33
2017-10-20T19:19:39.903Z,5.20
2017-10-20T19:22:08.327Z,6.07
2017-10-20T19:24:36.044Z,5.23
2017-10-20T19:27:04.480Z,5.00
2017-10-20T19:29:33.180Z,7.23
2017-10-20T19:32:00.845Z,5.20
2017-10-20T19:34:28.568Z,4.50
2017-10-20T19:36:56.231Z,8.23
2017-10-20T19:39:23.936Z,5.53
2017-10-20T19:41:52.369Z,14.40
2017-10-20T19:44:20.080Z,8.57
2017-10-20T19:46:48.547Z,8.97
2017-10-20T19:49:20.522Z,6.13
2017-10-20T19:51:50.229Z,11.20
2017-10-20T19:54:18.240Z,9.17
2017-10-20T19:56:50.683Z,7.67
2017-10-20T19:59:18.743Z,6.63
2017-10-20T20:01:47.172Z,9.80
2017-10-20T20:04:14.880Z,6.90
2017-10-20T20:06:43.347Z,4.90
2017-10-20T20:09:11.992Z,6.90
2017-10-20T20:11:39.696Z,6.60
2017-10-20T20:14:08.193Z,4.47
2017-10-20T20:16:35.856Z,4.63
2017-10-20T20:19:03.611Z,7.97
2017-10-20T20:21:31.328Z,5.80
2017-10-20T20:23:59.087Z,7.10
2017-10-20T20:26:26.817Z,9.30
2017-10-20T20:28:54.580Z,5.30
2017-10-20T20:31:23.913Z,9.13
2017-10-20T20:33:54.189Z,7.27
2017-10-20T20:36:21.900Z,3.80
2017-10-20T20:38:49.656Z,8.43
2017-10-20T20:41:17.332Z,4.90
2017-10-20T20:43:45.802Z,5.93
2017-10-20T20:46:13.479Z,7.13
2017-10-20T20:48:41.980Z,8.47
2017-10-20T20:51:09.879Z,8.93
2017-10-20T20:53:39.095Z,7.50
2017-10-20T20:56:06.755Z,5.60
2017-10-20T20:58:34.455Z,9.83
2017-10-20T21:01:02.132Z,10.73
2017-10-20T21:03:29.903Z,5.90
2017-10-20T21:05:57.567Z,8.90
2017-10-20T21:08:25.263Z,5.73
2017-10-20T21:10:58.217Z,6.70
2017-10-20T21:13:25.920Z,9.00
2017-10-20T21:15:54.349Z,7.60
2017-10-20T21:18:22.138Z,9.40
2017-10-20T21:20:49.800Z,8.47
2017-10-20T21:23:17.499Z,8.43
2017-10-20T21:25:45.163Z,6.60
2017-10-20T21:28:12.866Z,10.20
2017-10-20T21:30:40.576Z,5.43
2017-10-20T21:33:08.246Z,6.77
2017-10-20T21:35:35.949Z,6.17
2017-10-20T21:38:03.920Z,6.20
2017-10-20T21:40:31.620Z,7.50
2017-10-20T21:42:59.286Z,4.03
2017-10-20T21:45:27.004Z,5.50
2017-10-20T21:47:54.672Z,6.37
2017-10-20T21:50:23.151Z,11.53
2017-10-20T21:52:51.598Z,5.90
2017-10-20T21:55:19.312Z,6.77
2017-10-20T21:57:46.984Z,9.10
2017-10-20T22:00:14.703Z,11.63
2017-10-20T22:02:42.439Z,5.40
2017-10-20T22:05:10.155Z,6.30
2017-10-20T22:07:37.831Z,7.63
2017-10-20T22:10:05.556Z,6.07
2017-10-20T22:12:33.987Z,7.23
2017-10-20T22:15:01.688Z,7.33
2017-10-20T22:17:29.389Z,7.30
2017-10-20T22:19:57.115Z,5.57
2017-10-20T22:22:25.538Z,8.40
2017-10-20T22:24:53.264Z,6.17
2017-10-20T22:27:21.078Z,9.40
2017-10-20T22:29:48.798Z,5.47
2017-10-20T22:32:16.478Z,11.97
2017-10-20T22:34:44.186Z,8.20
2017-10-20T22:37:11.852Z,5.63
2017-10-20T22:39:40.329Z,11.53
2017-10-20T22:42:08.785Z,6.60
2017-10-20T22:44:36.504Z,5.97
2017-10-20T22:47:04.181Z,6.40
2017-10-20T22:49:31.892Z,4.17
2017-10-20T22:52:00.319Z,7.90
2017-10-20T22:54:28.028Z,17.47
2017-10-20T22:56:56.572Z,5.97
2017-10-20T22:59:24.280Z,5.00
2017-10-20T23:01:52.709Z,3.97
2017-10-20T23:04:20.420Z,5.17
2017-10-20T23:06:48.852Z,9.27
2017-10-20T23:09:16.649Z,9.90
2017-10-20T23:11:45.071Z,5.43
2017-10-20T23:14:12.771Z,6.50
2017-10-20T23:16:40.497Z,5.17
2017-10-20T23:19:08.199Z,7.20
2017-10-20T23:21:35.871Z,5.83
2017-10-20T23:24:04.342Z,6.20
2017-10-20T23:26:32.766Z,7.87
2017-10-20T23:29:00.512Z,8.90
2017-10-20T23:31:28.173Z,7.80
2017-10-20T23:33:55.895Z,9.37
2017-10-20T23:36:23.552Z,9.77
2017-10-20T23:38:51.327Z,5.10
2017-10-20T23:41:19.751Z,6.47
2017-10-20T23:43:47.468Z,11.80
2017-10-20T23:46:15.899Z,5.77
2017-10-20T23:48:43.546Z,4.63
2017-10-20T23:51:11.303Z,6.87
2017-10-20T23:53:38.956Z,5.60
2017-10-20T23:56:06.655Z,3.83
2017-10-20T23:58:34.321Z,5.00
